sensor_id;sensor_type;location;lat;lon;timestamp;temperature;humidity
3226;DHT22;1625;49.884;8.666;2022-12-18T04:19:45;-6.90;99.90
3226;DHT22;1625;49.884;8.666;2022-12-18T04:23:07;-6.70;99.90
3226;DHT22;1625;49.884;8.666;2022-12-18T04:27:06;-6.80;99.90
3226;DHT22;1625;49.884;8.666;2022-12-18T04:52:20;-7.00;99.90
3226;DHT22;1625;49.884;8.666;2022-12-18T04:55:35;-7.30;99.90
3226;DHT22;1625;49.884;8.666;2022-12-18T05:02:40;-7.20;99.90
3226;DHT22;1625;49.884;8.666;2022-12-18T05:09:24;-7.20;99.90
3226;DHT22;1625;49.884;8.666;2022-12-18T05:16:20;-7.10;99.90
3226;DHT22;1625;49.884;8.666;2022-12-18T05:56:57;-7.20;99.90
3226;DHT22;1625;49.884;8.666;2022-12-18T06:00:07;-7.20;99.90
3226;DHT22;1625;49.884;8.666;2022-12-18T06:02:49;-7.30;99.90
3226;DHT22;1625;49.884;8.666;2022-12-18T06:05:15;-6.90;99.90
3226;DHT22;1625;49.884;8.666;2022-12-18T06:10:08;-7.40;99.90
3226;DHT22;1625;49.884;8.666;2022-12-18T06:15:00;-7.20;99.90
3226;DHT22;1625;49.884;8.666;2022-12-18T06:17:30;-7.30;99.90
3226;DHT22;1625;49.884;8.666;2022-12-18T06:22:22;-7.30;99.90
3226;DHT22;1625;49.884;8.666;2022-12-18T06:27:15;-7.10;99.90
3226;DHT22;1625;49.884;8.666;2022-12-18T06:32:08;-7.10;99.90
3226;DHT22;1625;49.884;8.666;2022-12-18T06:34:36;-6.80;99.90
3226;DHT22;1625;49.884;8.666;2022-12-18T06:41:55;-7.10;99.90
3226;DHT22;1625;49.884;8.666;2022-12-18T06:44:21;-6.90;99.90
3226;DHT22;1625;49.884;8.666;2022-12-18T06:46:48;-6.80;99.90
3226;DHT22;1625;49.884;8.666;2022-12-18T06:59:32;-6.90;99.90
3226;DHT22;1625;49.884;8.666;2022-12-18T07:05:00;-6.80;99.90
3226;DHT22;1625;49.884;8.666;2022-12-18T07:46:51;-6.50;99.90
3226;DHT22;1625;49.884;8.666;2022-12-18T08:04:49;-6.10;99.90
3226;DHT22;1625;49.884;8.666;2022-12-18T14:40:02;-1.50;99.90
3226;DHT22;1625;49.884;8.666;2022-12-18T15:03:08;-1.60;99.90
3226;DHT22;1625;49.884;8.666;2022-12-18T15:16:43;-1.80;99.90
3226;DHT22;1625;49.884;8.666;2022-12-18T15:31:37;-1.80;99.90
3226;DHT22;1625;49.884;8.666;2022-12-18T15:47:17;-1.90;99.90
3226;DHT22;1625;49.884;8.666;2022-12-18T15:49:42;-2.00;99.90
3226;DHT22;1625;49.884;8.666;2022-12-18T15:52:09;-1.90;99.90
3226;DHT22;1625;49.884;8.666;2022-12-18T15:58:09;-1.90;99.90
3226;DHT22;1625;49.884;8.666;2022-12-18T16:00:39;-2.00;99.90
3226;DHT22;1625;49.884;8.666;2022-12-18T16:03:34;-2.10;99.90
3226;DHT22;1625;49.884;8.666;2022-12-18T16:06:46;-2.00;99.90
3226;DHT22;1625;49.884;8.666;2022-12-18T17:30:18;-1.70;99.90
3226;DHT22;1625;49.884;8.666;2022-12-18T17:32:43;-1.80;99.90
3226;DHT22;1625;49.884;8.666;2022-12-18T17:35:09;-1.80;99.90
3226;DHT22;1625;49.884;8.666;2022-12-18T17:40:00;-1.80;99.90
3226;DHT22;1625;49.884;8.666;2022-12-18T17:42:26;-2.00;99.90
3226;DHT22;1625;49.884;8.666;2022-12-18T17:47:18;-1.70;99.90
3226;DHT22;1625;49.884;8.666;2022-12-18T17:49:43;-1.60;99.90
3226;DHT22;1625;49.884;8.666;2022-12-18T17:52:09;-1.70;99.90
3226;DHT22;1625;49.884;8.666;2022-12-18T17:59:31;-1.70;99.90
3226;DHT22;1625;49.884;8.666;2022-12-18T18:01:56;-1.60;99.90
3226;DHT22;1625;49.884;8.666;2022-12-18T18:04:22;-1.60;99.90
3226;DHT22;1625;49.884;8.666;2022-12-18T18:06:51;-1.60;99.90
3226;DHT22;1625;49.884;8.666;2022-12-18T18:09:16;-1.70;99.90
3226;DHT22;1625;49.884;8.666;2022-12-18T18:11:43;-1.70;99.90
3226;DHT22;1625;49.884;8.666;2022-12-18T18:17:01;-1.60;99.90
3226;DHT22;1625;49.884;8.666;2022-12-18T18:19:26;-1.60;99.90
3226;DHT22;1625;49.884;8.666;2022-12-18T18:21:52;-1.90;99.90
3226;DHT22;1625;49.884;8.666;2022-12-18T18:24:20;-1.60;99.90
3226;DHT22;1625;49.884;8.666;2022-12-18T18:26:47;-1.60;99.90
3226;DHT22;1625;49.884;8.666;2022-12-18T18:29:18;-1.60;99.90
3226;DHT22;1625;49.884;8.666;2022-12-18T18:31:44;-1.50;99.90
3226;DHT22;1625;49.884;8.666;2022-12-18T18:34:18;-1.50;99.90
3226;DHT22;1625;49.884;8.666;2022-12-18T18:36:44;-1.60;99.90
3226;DHT22;1625;49.884;8.666;2022-12-18T18:39:11;-1.50;99.90
3226;DHT22;1625;49.884;8.666;2022-12-18T18:41:37;-1.40;99.90
3226;DHT22;1625;49.884;8.666;2022-12-18T18:44:03;-1.40;99.90
3226;DHT22;1625;49.884;8.666;2022-12-18T18:46:28;-1.40;99.90
3226;DHT22;1625;49.884;8.666;2022-12-18T18:48:54;-1.40;99.90
3226;DHT22;1625;49.884;8.666;2022-12-18T18:51:20;-1.30;99.90
3226;DHT22;1625;49.884;8.666;2022-12-18T18:53:48;-1.30;99.90
3226;DHT22;1625;49.884;8.666;2022-12-18T18:56:16;-1.30;99.90
3226;DHT22;1625;49.884;8.666;2022-12-18T18:58:42;-1.30;99.90
3226;DHT22;1625;49.884;8.666;2022-12-18T19:01:11;-1.30;99.90
3226;DHT22;1625;49.884;8.666;2022-12-18T19:03:37;-1.30;99.90
3226;DHT22;1625;49.884;8.666;2022-12-18T19:06:04;-1.30;99.90
3226;DHT22;1625;49.884;8.666;2022-12-18T19:08:33;-1.30;99.90
3226;DHT22;1625;49.884;8.666;2022-12-18T19:11:00;-1.30;99.90
3226;DHT22;1625;49.884;8.666;2022-12-18T19:13:29;-1.30;99.90
3226;DHT22;1625;49.884;8.666;2022-12-18T19:16:06;-1.20;99.90
3226;DHT22;1625;49.884;8.666;2022-12-18T19:18:33;-1.30;99.90
3226;DHT22;1625;49.884;8.666;2022-12-18T19:21:00;-1.20;99.90
3226;DHT22;1625;49.884;8.666;2022-12-18T19:23:26;-1.20;99.90
3226;DHT22;1625;49.884;8.666;2022-12-18T19:25:52;-1.20;99.90
3226;DHT22;1625;49.884;8.666;2022-12-18T19:28:18;-1.20;99.90
3226;DHT22;1625;49.884;8.666;2022-12-18T19:30:46;-1.20;99.90
3226;DHT22;1625;49.884;8.666;2022-12-18T19:33:11;-1.20;99.90
3226;DHT22;1625;49.884;8.666;2022-12-18T19:35:37;-1.20;99.90
3226;DHT22;1625;49.884;8.666;2022-12-18T19:38:03;-1.20;99.90
3226;DHT22;1625;49.884;8.666;2022-12-18T19:40:28;-1.10;99.90
3226;DHT22;1625;49.884;8.666;2022-12-18T19:42:54;-1.10;99.90
3226;DHT22;1625;49.884;8.666;2022-12-18T19:45:19;-1.10;99.90
3226;DHT22;1625;49.884;8.666;2022-12-18T19:47:45;-1.00;99.90
3226;DHT22;1625;49.884;8.666;2022-12-18T19:50:10;-1.00;99.90
3226;DHT22;1625;49.884;8.666;2022-12-18T19:52:36;-1.00;99.90
3226;DHT22;1625;49.884;8.666;2022-12-18T19:55:02;-1.00;99.90
3226;DHT22;1625;49.884;8.666;2022-12-18T19:57:27;-1.00;99.90
3226;DHT22;1625;49.884;8.666;2022-12-18T19:59:53;-1.00;99.90
3226;DHT22;1625;49.884;8.666;2022-12-18T20:02:18;-0.90;99.90
3226;DHT22;1625;49.884;8.666;2022-12-18T20:04:45;-1.00;99.90
3226;DHT22;1625;49.884;8.666;2022-12-18T20:07:11;-1.00;99.90
3226;DHT22;1625;49.884;8.666;2022-12-18T20:09:36;-0.90;99.90
3226;DHT22;1625;49.884;8.666;2022-12-18T20:12:02;-1.00;99.90
3226;DHT22;1625;49.884;8.666;2022-12-18T20:14:28;-0.90;99.90
3226;DHT22;1625;49.884;8.666;2022-12-18T20:16:53;-0.90;99.90
3226;DHT22;1625;49.884;8.666;2022-12-18T20:19:20;-0.90;99.90
3226;DHT22;1625;49.884;8.666;2022-12-18T20:21:45;-1.00;99.90
3226;DHT22;1625;49.884;8.666;2022-12-18T20:24:11;-1.00;99.90
3226;DHT22;1625;49.884;8.666;2022-12-18T20:26:37;-0.90;99.90
3226;DHT22;1625;49.884;8.666;2022-12-18T20:29:03;-1.00;99.90
3226;DHT22;1625;49.884;8.666;2022-12-18T20:31:28;-1.00;99.90
3226;DHT22;1625;49.884;8.666;2022-12-18T20:33:57;-1.10;99.90
3226;DHT22;1625;49.884;8.666;2022-12-18T20:36:23;-1.10;99.90
3226;DHT22;1625;49.884;8.666;2022-12-18T20:38:50;-1.10;99.90
3226;DHT22;1625;49.884;8.666;2022-12-18T20:41:19;-1.10;99.90
3226;DHT22;1625;49.884;8.666;2022-12-18T20:43:45;-1.10;99.90
3226;DHT22;1625;49.884;8.666;2022-12-18T20:46:12;-1.00;99.90
3226;DHT22;1625;49.884;8.666;2022-12-18T20:48:40;-1.00;99.90
3226;DHT22;1625;49.884;8.666;2022-12-18T20:51:08;-1.00;99.90
3226;DHT22;1625;49.884;8.666;2022-12-18T20:53:35;-1.00;99.90
3226;DHT22;1625;49.884;8.666;2022-12-18T20:56:08;-1.00;99.90
3226;DHT22;1625;49.884;8.666;2022-12-18T20:58:34;-0.90;99.90
3226;DHT22;1625;49.884;8.666;2022-12-18T21:01:13;-0.90;99.90
3226;DHT22;1625;49.884;8.666;2022-12-18T21:03:40;-0.90;99.90
3226;DHT22;1625;49.884;8.666;2022-12-18T21:06:07;-0.80;99.90
3226;DHT22;1625;49.884;8.666;2022-12-18T21:08:33;-0.80;99.90
3226;DHT22;1625;49.884;8.666;2022-12-18T21:11:25;-0.40;99.90
3226;DHT22;1625;49.884;8.666;2022-12-18T21:14:24;-0.80;99.90
